Time;durP1;ratioP1;P1;durP2;ratioP2;P2;SDS_P1;SDS_P2;PMS_P1;PMS_P2;Temp;Humidity;BMP_temperature;BMP_pressure;BME280_temperature;BME280_humidity;BME280_pressure;Samples;Min_cycle;Max_cycle;Signal;HPM_P1;HPM_P2
2022/04/03 00:00:10;;;;;;;3.63;2.85;;;3.30;99.90;;;;;;5033489;28;20547;-49
2022/04/03 00:02:36;;;;;;;3.50;2.78;;;3.30;99.90;;;;;;5033617;28;20175;-52
2022/04/03 00:05:02;;;;;;;4.28;2.85;;;3.20;99.90;;;;;;5033241;28;20226;-49
2022/04/03 00:07:27;;;;;;;4.25;2.92;;;3.20;99.90;;;;;;5033397;28;20580;-49
2022/04/03 00:09:53;;;;;;;3.53;2.63;;;3.30;99.90;;;;;;5033534;28;20258;-49
2022/04/03 00:12:18;;;;;;;3.95;2.85;;;3.30;99.90;;;;;;5033693;28;20574;-48
2022/04/03 00:14:44;;;;;;;8.13;3.10;;;3.30;99.90;;;;;;5033149;28;20238;-49
2022/04/03 00:17:09;;;;;;;4.53;3.35;;;3.20;99.90;;;;;;5033495;28;20187;-49
2022/04/03 00:19:35;;;;;;;4.15;2.80;;;3.10;99.90;;;;;;5033146;28;20534;-49
2022/04/03 00:22:03;;;;;;;6.32;3.58;;;3.20;99.90;;;;;;5033092;28;20180;-49
2022/04/03 00:24:29;;;;;;;4.90;3.10;;;3.10;99.90;;;;;;5033037;28;20581;-49
2022/04/03 00:26:55;;;;;;;5.25;3.00;;;3.10;99.90;;;;;;5033323;28;20183;-49
2022/04/03 00:29:20;;;;;;;4.80;3.03;;;3.10;99.90;;;;;;5033090;28;20208;-47
2022/04/03 00:31:46;;;;;;;7.57;3.05;;;2.80;99.90;;;;;;5033474;28;20171;-49
2022/04/03 00:34:11;;;;;;;3.90;2.55;;;3.10;99.90;;;;;;5032832;28;20225;-49
2022/04/03 00:36:37;;;;;;;4.15;3.22;;;3.10;99.90;;;;;;5032877;28;20537;-48
2022/04/03 00:39:03;;;;;;;5.35;2.80;;;3.10;99.90;;;;;;5032824;28;20172;-47
2022/04/03 00:41:28;;;;;;;4.05;2.40;;;3.10;99.90;;;;;;5032746;28;20203;-47
2022/04/03 00:43:55;;;;;;;4.00;2.80;;;3.10;99.90;;;;;;5032672;28;20171;-48
2022/04/03 00:46:24;;;;;;;2.65;2.42;;;3.10;99.90;;;;;;5032738;28;20197;-48
2022/04/03 00:48:50;;;;;;;8.25;2.33;;;3.10;99.90;;;;;;5033002;28;20237;-48
2022/04/03 00:51:17;;;;;;;3.67;2.30;;;3.10;99.90;;;;;;5033126;28;20171;-47
2022/04/03 00:53:43;;;;;;;4.88;2.03;;;3.10;99.90;;;;;;5032593;28;20217;-47
2022/04/03 00:56:09;;;;;;;3.60;2.28;;;3.10;99.90;;;;;;5032515;28;20167;-47
2022/04/03 00:58:38;;;;;;;4.07;2.60;;;3.00;99.90;;;;;;5032613;28;20175;-47
2022/04/03 01:01:04;;;;;;;5.13;2.40;;;3.00;99.90;;;;;;5032310;28;20199;-47
2022/04/03 01:03:29;;;;;;;3.00;2.08;;;3.10;99.90;;;;;;5032721;28;20555;-47
2022/04/03 01:05:56;;;;;;;2.50;2.28;;;3.10;99.90;;;;;;5032570;28;20175;-47
2022/04/03 01:08:25;;;;;;;6.20;2.50;;;3.10;99.90;;;;;;5032606;28;20199;-47
2022/04/03 01:10:51;;;;;;;4.38;2.67;;;3.10;99.90;;;;;;5032862;28;20171;-47
2022/04/03 01:13:17;;;;;;;3.63;2.30;;;3.00;99.90;;;;;;5032898;28;20171;-47
2022/04/03 01:15:54;;;;;;;3.67;2.75;;;3.00;99.90;;;;;;5032215;28;20657;-47
2022/04/03 01:18:19;;;;;;;4.32;2.80;;;3.10;99.90;;;;;;5032761;28;20171;-47
2022/04/03 01:20:45;;;;;;;4.50;3.03;;;3.10;99.90;;;;;;5032127;28;20543;-47
2022/04/03 01:23:11;;;;;;;4.57;2.88;;;3.00;99.90;;;;;;5032166;28;20167;-47
2022/04/03 01:25:37;;;;;;;4.68;3.15;;;3.00;99.90;;;;;;5032120;28;20171;-47
2022/04/03 01:28:02;;;;;;;4.38;3.13;;;3.00;99.90;;;;;;5032202;28;20167;-47
2022/04/03 01:30:28;;;;;;;5.63;3.17;;;3.00;99.90;;;;;;5032343;28;20216;-47
2022/04/03 01:32:53;;;;;;;5.05;3.08;;;3.00;99.90;;;;;;5032085;28;20173;-47
2022/04/03 01:35:19;;;;;;;6.75;3.30;;;3.00;99.90;;;;;;5032330;28;20190;-47
2022/04/03 01:37:44;;;;;;;7.38;3.65;;;3.00;99.90;;;;;;5031933;28;20176;-47
2022/04/03 01:40:12;;;;;;;3.78;3.17;;;3.00;99.90;;;;;;5032020;28;21238;-47
2022/04/03 01:42:38;;;;;;;10.80;3.88;;;2.90;99.90;;;;;;5032207;28;20258;-47
2022/04/03 01:45:05;;;;;;;5.57;3.45;;;2.90;99.90;;;;;;5032013;28;20619;-47
2022/04/03 01:47:30;;;;;;;5.85;3.83;;;2.80;99.90;;;;;;5031866;28;20257;-48
2022/04/03 01:49:56;;;;;;;6.60;3.75;;;2.90;99.90;;;;;;5031913;28;20528;-48
2022/04/03 01:52:22;;;;;;;7.50;4.30;;;2.80;99.90;;;;;;5031963;28;20171;-48
2022/04/03 01:54:47;;;;;;;4.97;3.42;;;2.70;99.90;;;;;;5032218;28;20564;-49
2022/04/03 01:57:13;;;;;;;10.75;3.63;;;2.80;99.90;;;;;;5031843;28;20171;-49
2022/04/03 01:59:38;;;;;;;5.03;3.53;;;2.70;99.90;;;;;;5030524;28;20202;-49
2022/04/03 02:02:04;;;;;;;8.15;3.83;;;2.70;99.90;;;;;;5031839;28;20265;-48
2022/04/03 02:04:29;;;;;;;5.32;3.70;;;2.70;99.90;;;;;;5031789;28;20172;-48
2022/04/03 02:06:57;;;;;;;7.05;3.83;;;2.70;99.90;;;;;;5031960;28;20654;-48
2022/04/03 02:09:23;;;;;;;3.75;3.10;;;2.60;99.90;;;;;;5031822;28;20258;-48
2022/04/03 02:11:48;;;;;;;6.95;3.47;;;2.60;99.90;;;;;;5032163;28;20258;-48
2022/04/03 02:14:14;;;;;;;6.80;3.97;;;2.70;99.90;;;;;;5033905;28;20167;-49
2022/04/03 02:16:39;;;;;;;5.22;3.92;;;2.70;99.90;;;;;;5035492;28;20184;-49
2022/04/03 02:19:05;;;;;;;7.28;3.80;;;2.70;99.90;;;;;;5035502;28;20176;-48
2022/04/03 02:21:30;;;;;;;5.35;3.45;;;2.70;99.90;;;;;;5035281;28;20203;-49
2022/04/03 02:23:56;;;;;;;5.82;3.42;;;2.70;99.90;;;;;;5035409;28;20174;-49
2022/04/03 02:26:21;;;;;;;5.85;3.88;;;2.70;99.90;;;;;;5035330;28;20171;-48
2022/04/03 02:28:47;;;;;;;5.75;3.60;;;2.70;99.90;;;;;;5035626;28;20163;-48
2022/04/03 02:31:14;;;;;;;6.18;3.25;;;2.70;99.90;;;;;;5035504;28;20164;-48
2022/04/03 02:33:39;;;;;;;6.10;3.20;;;2.60;99.90;;;;;;5035410;28;20183;-48
2022/04/03 02:36:05;;;;;;;6.05;3.50;;;2.60;99.90;;;;;;5035126;28;20166;-49
2022/04/03 02:38:30;;;;;;;5.30;3.45;;;2.60;99.90;;;;;;5033752;28;20550;-48
2022/04/03 02:40:56;;;;;;;5.38;3.10;;;2.60;99.90;;;;;;5034929;28;20203;-48
2022/04/03 02:43:21;;;;;;;5.78;3.47;;;2.60;99.90;;;;;;5035002;28;20168;-47
2022/04/03 02:45:47;;;;;;;5.43;3.42;;;2.60;99.90;;;;;;5035265;28;20175;-49
2022/04/03 02:48:13;;;;;;;4.10;3.08;;;2.60;99.90;;;;;;5034866;28;20222;-48
2022/04/03 02:50:39;;;;;;;6.53;3.30;;;2.60;99.90;;;;;;5034869;28;20171;-48
2022/04/03 02:53:04;;;;;;;5.43;3.15;;;2.60;99.90;;;;;;5034779;28;20305;-49
2022/04/03 02:55:30;;;;;;;5.55;3.20;;;2.60;99.90;;;;;;5034767;28;20246;-48
2022/04/03 02:57:55;;;;;;;4.20;3.05;;;2.70;99.90;;;;;;5034682;28;20631;-48
2022/04/03 03:00:21;;;;;;;5.03;2.97;;;2.60;99.90;;;;;;5034730;28;20214;-47
2022/04/03 03:02:48;;;;;;;5.75;2.95;;;2.50;99.90;;;;;;5034935;28;20167;-48
2022/04/03 03:05:14;;;;;;;6.55;3.42;;;2.60;99.90;;;;;;5034930;28;20502;-47
2022/04/03 03:07:42;;;;;;;4.38;3.15;;;2.60;99.90;;;;;;5034566;28;20221;-48
2022/04/03 03:10:12;;;;;;;5.47;3.15;;;2.60;99.90;;;;;;5034624;28;20242;-48
2022/04/03 03:12:37;;;;;;;5.15;3.38;;;2.60;99.90;;;;;;5034443;28;20160;-47
2022/04/03 03:15:04;;;;;;;5.78;3.53;;;2.60;99.90;;;;;;5034661;28;20627;-48
2022/04/03 03:17:30;;;;;;;9.75;3.65;;;2.50;99.90;;;;;;5034606;28;20230;-47
2022/04/03 03:19:55;;;;;;;5.50;3.25;;;2.50;99.90;;;;;;5034227;28;20203;-47
2022/04/03 03:22:21;;;;;;;6.05;3.40;;;2.50;99.90;;;;;;5034231;28;20255;-47
2022/04/03 03:24:47;;;;;;;4.45;2.97;;;2.50;99.90;;;;;;5033612;28;20206;-47
2022/04/03 03:27:13;;;;;;;3.67;3.00;;;2.50;99.90;;;;;;5034000;28;20258;-48
2022/04/03 03:29:38;;;;;;;5.13;3.08;;;2.50;99.90;;;;;;5034099;28;20238;-47
2022/04/03 03:32:05;;;;;;;4.55;3.05;;;2.50;99.90;;;;;;5034027;28;20217;-47
2022/04/03 03:34:30;;;;;;;4.53;3.63;;;2.50;99.90;;;;;;5034123;28;20167;-49
2022/04/03 03:36:56;;;;;;;9.55;3.13;;;2.60;99.90;;;;;;5034077;28;20170;-47
2022/04/03 03:39:21;;;;;;;5.88;3.05;;;2.60;99.90;;;;;;5033898;28;20175;-47
2022/04/03 03:41:47;;;;;;;6.80;3.05;;;2.60;99.90;;;;;;5034122;28;20206;-47
2022/04/03 03:44:13;;;;;;;5.88;3.75;;;2.70;99.90;;;;;;5033814;28;20167;-48
2022/04/03 03:46:39;;;;;;;5.93;3.80;;;2.60;99.90;;;;;;5033910;28;20264;-48
2022/04/03 03:49:06;;;;;;;5.47;3.20;;;2.60;99.90;;;;;;5033753;28;20179;-47
2022/04/03 03:51:36;;;;;;;5.90;3.78;;;2.60;99.90;;;;;;5033718;28;20523;-48
2022/04/03 03:54:02;;;;;;;7.03;3.67;;;2.60;99.90;;;;;;5032467;28;20175;-48
2022/04/03 03:56:28;;;;;;;6.65;3.65;;;2.50;99.90;;;;;;5033542;28;20163;-48
2022/04/03 03:58:54;;;;;;;8.52;3.92;;;2.50;99.90;;;;;;5033596;28;20739;-48
2022/04/03 04:01:21;;;;;;;7.43;3.33;;;2.60;99.90;;;;;;5033692;28;20210;-47
2022/04/03 04:03:46;;;;;;;6.07;3.22;;;2.50;99.90;;;;;;5033818;28;20166;-48
2022/04/03 04:06:12;;;;;;;4.90;3.35;;;2.50;99.90;;;;;;5033494;28;20602;-49
2022/04/03 04:08:38;;;;;;;4.35;2.97;;;2.50;99.90;;;;;;5033629;28;20682;-48
2022/04/03 04:11:03;;;;;;;6.18;3.50;;;2.40;99.90;;;;;;5033329;28;20171;-48
2022/04/03 04:13:29;;;;;;;6.32;3.08;;;2.40;99.90;;;;;;5033296;28;20175;-49
2022/04/03 04:15:55;;;;;;;5.35;3.13;;;2.50;99.90;;;;;;5033235;28;20168;-49
2022/04/03 04:18:20;;;;;;;10.38;3.80;;;2.40;99.90;;;;;;5033556;28;20163;-48
2022/04/03 04:20:46;;;;;;;4.40;2.85;;;2.30;99.90;;;;;;5033597;28;20210;-49
2022/04/03 04:23:13;;;;;;;5.97;3.42;;;2.10;99.90;;;;;;5033344;28;20179;-48
2022/04/03 04:25:38;;;;;;;3.95;2.90;;;2.20;99.90;;;;;;5033277;28;20258;-48
2022/04/03 04:28:05;;;;;;;8.88;3.65;;;2.10;99.90;;;;;;5032942;28;20210;-47
2022/04/03 04:30:31;;;;;;;5.85;3.05;;;2.20;99.90;;;;;;5033282;28;20271;-48
2022/04/03 04:32:57;;;;;;;6.43;3.13;;;2.10;99.90;;;;;;5032954;28;20205;-48
2022/04/03 04:35:22;;;;;;;4.57;3.00;;;2.10;99.90;;;;;;5032892;28;20170;-48
2022/04/03 04:37:48;;;;;;;6.53;3.55;;;2.00;99.90;;;;;;5032898;28;20627;-48
2022/04/03 04:40:14;;;;;;;9.63;3.88;;;2.00;99.90;;;;;;5032719;28;20198;-48
2022/04/03 04:42:39;;;;;;;7.88;3.72;;;2.00;99.90;;;;;;5032793;28;20254;-48
2022/04/03 04:45:09;;;;;;;7.47;4.00;;;2.00;99.90;;;;;;5032755;28;20259;-48
2022/04/03 04:47:36;;;;;;;7.93;3.90;;;1.90;99.90;;;;;;5032589;28;20269;-48
2022/04/03 04:50:05;;;;;;;6.25;3.92;;;2.00;99.90;;;;;;5032630;28;20657;-48
2022/04/03 04:52:30;;;;;;;6.35;3.33;;;1.80;99.90;;;;;;5032931;28;20183;-49
2022/04/03 04:54:56;;;;;;;5.32;3.45;;;1.90;99.90;;;;;;5032535;28;20171;-48
2022/04/03 04:57:21;;;;;;;7.68;3.00;;;1.90;99.90;;;;;;5032495;28;20163;-49
2022/04/03 04:59:47;;;;;;;5.72;3.35;;;1.80;99.90;;;;;;5032736;28;20615;-48
2022/04/03 05:02:12;;;;;;;4.07;3.20;;;1.80;99.90;;;;;;5032424;28;20519;-48
2022/04/03 05:04:38;;;;;;;7.40;3.90;;;1.90;99.90;;;;;;5032453;28;20201;-48
2022/04/03 05:07:04;;;;;;;6.30;3.65;;;1.90;99.90;;;;;;5032367;28;20178;-48
2022/04/03 05:09:31;;;;;;;8.13;3.97;;;1.90;99.90;;;;;;5032398;28;20171;-49
2022/04/03 05:11:57;;;;;;;6.75;4.25;;;1.90;99.90;;;;;;5032307;28;20649;-49
2022/04/03 05:14:23;;;;;;;7.28;3.33;;;1.80;99.90;;;;;;5032570;28;20548;-49
2022/04/03 05:16:49;;;;;;;8.63;3.53;;;1.90;99.90;;;;;;5032521;28;20164;-49
2022/04/03 05:19:15;;;;;;;10.15;4.05;;;1.80;99.90;;;;;;5032245;28;20170;-49
2022/04/03 05:21:41;;;;;;;6.38;3.60;;;1.80;99.90;;;;;;5032038;28;20217;-49
2022/04/03 05:24:07;;;;;;;8.38;3.30;;;1.90;99.90;;;;;;5032167;28;20159;-49
2022/04/03 05:26:33;;;;;;;5.50;3.45;;;1.90;99.90;;;;;;5032363;28;20654;-49
2022/04/03 05:28:58;;;;;;;7.70;3.50;;;2.00;99.90;;;;;;5031928;28;20164;-49
2022/04/03 05:31:26;;;;;;;6.93;3.75;;;1.90;99.90;;;;;;5031937;28;20234;-48
2022/04/03 05:33:52;;;;;;;10.07;4.15;;;2.00;99.90;;;;;;5032222;28;20203;-48
2022/04/03 05:36:17;;;;;;;8.20;3.80;;;2.00;99.90;;;;;;5030979;28;20175;-49
2022/04/03 05:38:43;;;;;;;10.38;4.15;;;2.00;99.90;;;;;;5032260;28;20175;-49
2022/04/03 05:41:08;;;;;;;6.57;3.67;;;2.00;99.90;;;;;;5031372;28;20203;-48
2022/04/03 05:43:34;;;;;;;10.00;4.88;;;2.00;99.90;;;;;;5031743;28;20635;-47
2022/04/03 05:45:59;;;;;;;6.70;4.78;;;2.20;99.90;;;;;;5031616;28;20177;-48
2022/04/03 05:48:25;;;;;;;8.73;4.63;;;2.10;99.90;;;;;;5032368;28;20618;-47
2022/04/03 05:50:50;;;;;;;7.87;4.47;;;2.00;99.90;;;;;;5036081;28;20160;-47
2022/04/03 05:53:16;;;;;;;7.30;4.53;;;2.00;99.90;;;;;;5035847;28;20159;-47
2022/04/03 05:55:41;;;;;;;9.50;4.25;;;2.00;99.90;;;;;;5036115;28;20171;-49
2022/04/03 05:58:07;;;;;;;9.43;5.07;;;2.00;99.90;;;;;;5036095;28;20183;-48
2022/04/03 06:00:34;;;;;;;10.38;4.82;;;2.00;99.90;;;;;;5035724;28;20206;-48
2022/04/03 06:03:01;;;;;;;9.02;4.68;;;2.00;99.90;;;;;;5035385;28;20548;-49
2022/04/03 06:05:29;;;;;;;12.88;5.35;;;2.00;99.90;;;;;;5051319;28;20171;-48
2022/04/03 06:07:55;;;;;;;7.57;5.00;;;2.00;99.90;;;;;;5035313;28;20663;-48
2022/04/03 06:10:22;;;;;;;13.25;4.82;;;1.90;99.90;;;;;;5035870;28;20581;-48
2022/04/03 06:12:55;;;;;;;20.15;7.30;;;1.90;99.90;;;;;;5035879;28;20171;-48
2022/04/03 06:15:21;;;;;;;6.32;4.13;;;1.90;99.90;;;;;;5035525;28;20534;-48
2022/04/03 06:17:51;;;;;;;8.07;3.85;;;1.90;99.90;;;;;;5035196;28;20163;-47
2022/04/03 06:20:18;;;;;;;9.93;4.05;;;1.90;99.90;;;;;;5035092;28;20571;-47
2022/04/03 06:22:44;;;;;;;6.00;3.63;;;1.90;99.90;;;;;;5035401;28;20628;-47
2022/04/03 06:25:09;;;;;;;7.70;3.63;;;2.00;99.90;;;;;;5035373;28;20198;-48
2022/04/03 06:27:35;;;;;;;5.78;3.88;;;2.10;99.90;;;;;;5035251;28;20190;-47
2022/04/03 06:30:00;;;;;;;7.85;3.65;;;2.10;99.90;;;;;;5035207;28;20251;-48
2022/04/03 06:32:26;;;;;;;6.22;3.22;;;2.20;99.90;;;;;;5035058;28;20209;-48
2022/04/03 06:34:51;;;;;;;8.90;3.88;;;2.20;99.90;;;;;;5034924;28;20178;-47
2022/04/03 06:37:17;;;;;;;6.18;3.25;;;2.40;99.90;;;;;;5035369;28;20178;-47
2022/04/03 06:39:42;;;;;;;9.77;3.10;;;2.40;99.90;;;;;;5034756;28;20561;-47
2022/04/03 06:42:08;;;;;;;4.25;3.10;;;2.30;99.90;;;;;;5034912;28;20179;-47
2022/04/03 06:44:34;;;;;;;6.20;2.85;;;2.30;99.90;;;;;;5034778;28;20160;-47
2022/04/03 06:47:00;;;;;;;6.88;2.80;;;2.40;99.90;;;;;;5034798;28;20353;-48
2022/04/03 06:49:26;;;;;;;6.68;3.30;;;2.30;99.90;;;;;;5035168;28;20178;-47
2022/04/03 06:51:51;;;;;;;5.43;2.90;;;2.40;99.90;;;;;;5035248;28;20293;-47
2022/04/03 06:54:17;;;;;;;4.75;2.90;;;2.40;99.90;;;;;;5035136;28;20171;-49
2022/04/03 06:56:42;;;;;;;4.90;2.38;;;2.40;99.90;;;;;;5034807;28;20243;-47
2022/04/03 06:59:08;;;;;;;3.63;2.80;;;2.40;99.90;;;;;;5034529;28;20635;-46
2022/04/03 07:01:33;;;;;;;5.95;2.90;;;2.70;99.90;;;;;;5034629;28;20657;-47
2022/04/03 07:03:59;;;;;;;8.20;3.58;;;2.90;99.90;;;;;;5034658;28;20624;-47
2022/04/03 07:06:24;;;;;;;6.35;3.78;;;3.00;99.90;;;;;;5034753;28;20167;-46
2022/04/03 07:08:50;;;;;;;7.80;3.25;;;3.10;99.90;;;;;;5034755;28;20643;-48
2022/04/03 07:11:15;;;;;;;6.90;3.17;;;3.30;99.90;;;;;;5034494;28;20548;-49
2022/04/03 07:13:41;;;;;;;7.22;3.33;;;3.50;99.90;;;;;;5034461;28;20164;-49
2022/04/03 07:16:06;;;;;;;11.48;3.42;;;3.70;99.90;;;;;;5034684;28;20175;-48
2022/04/03 07:18:35;;;;;;;6.65;3.60;;;3.80;99.90;;;;;;5034430;28;20623;-48
2022/04/03 07:21:01;;;;;;;10.75;3.30;;;4.00;99.90;;;;;;5034277;28;20264;-49
2022/04/03 07:23:26;;;;;;;9.02;3.60;;;4.00;99.90;;;;;;5033061;28;20627;-49
2022/04/03 07:25:52;;;;;;;6.28;3.67;;;4.10;99.90;;;;;;5034230;28;20708;-49
2022/04/03 07:28:17;;;;;;;6.15;3.25;;;4.20;99.90;;;;;;5033208;28;20207;-49
2022/04/03 07:30:43;;;;;;;7.32;3.50;;;4.20;99.90;;;;;;5034128;28;20167;-49
2022/04/03 07:33:09;;;;;;;5.47;3.20;;;4.40;99.90;;;;;;5034332;28;20627;-49
2022/04/03 07:35:34;;;;;;;8.73;3.58;;;4.50;99.90;;;;;;5034088;28;20168;-49
2022/04/03 07:38:00;;;;;;;8.48;3.85;;;4.60;99.90;;;;;;5034078;28;20172;-49
2022/04/03 07:40:26;;;;;;;12.30;3.95;;;4.50;99.90;;;;;;5032640;28;20741;-49
2022/04/03 07:42:52;;;;;;;7.00;4.40;;;4.70;99.90;;;;;;5034257;28;20189;-49
2022/04/03 07:45:18;;;;;;;6.93;3.30;;;4.70;99.90;;;;;;5034233;28;20195;-49
2022/04/03 07:47:49;;;;;;;5.45;3.35;;;4.80;99.90;;;;;;5033687;28;20250;-49
2022/04/03 07:50:19;;;;;;;7.68;3.55;;;5.00;99.90;;;;;;5033853;28;20525;-49
2022/04/03 07:52:47;;;;;;;5.97;3.13;;;5.00;99.90;;;;;;5033959;28;20195;-48
2022/04/03 07:55:12;;;;;;;6.20;3.78;;;5.10;99.90;;;;;;5033684;28;20225;-48
2022/04/03 07:57:39;;;;;;;6.82;4.03;;;5.20;99.90;;;;;;5033676;28;20655;-49
2022/04/03 08:00:10;;;;;;;11.57;5.97;;;5.30;99.90;;;;;;5033455;28;20694;-48
2022/04/03 08:02:37;;;;;;;8.13;3.90;;;5.40;99.90;;;;;;5033878;28;20187;-49
2022/04/03 08:05:03;;;;;;;20.40;8.98;;;5.40;99.90;;;;;;5033494;28;20199;-49
2022/04/03 08:07:44;;;;;;;7.60;3.67;;;5.40;99.90;;;;;;5033734;28;20199;-49
2022/04/03 08:10:12;;;;;;;6.50;3.30;;;5.40;99.90;;;;;;5033659;28;20175;-49
2022/04/03 08:12:40;;;;;;;5.45;2.92;;;5.50;99.90;;;;;;5032652;28;20160;-49
2022/04/03 08:15:07;;;;;;;5.28;3.60;;;5.60;99.90;;;;;;5033387;28;20693;-49
2022/04/03 08:17:34;;;;;;;8.10;4.07;;;5.70;99.90;;;;;;5033192;28;20218;-49
2022/04/03 08:20:03;;;;;;;3.97;2.75;;;5.70;99.90;;;;;;5033139;28;20191;-48
2022/04/03 08:22:28;;;;;;;6.20;2.95;;;5.80;99.90;;;;;;5032935;28;20267;-49
2022/04/03 08:24:54;;;;;;;4.90;2.80;;;6.00;99.90;;;;;;5032967;28;20195;-48
2022/04/03 08:27:20;;;;;;;7.32;4.18;;;6.10;99.90;;;;;;5033172;28;20203;-49
2022/04/03 08:29:46;;;;;;;10.60;3.90;;;6.10;99.90;;;;;;5032959;28;20199;-49
2022/04/03 08:32:13;;;;;;;6.95;2.97;;;6.10;99.90;;;;;;5032701;28;20623;-50
2022/04/03 08:34:40;;;;;;;4.68;2.42;;;6.20;99.90;;;;;;5031566;28;20171;-49
2022/04/03 08:37:05;;;;;;;6.60;3.08;;;6.50;99.90;;;;;;5032848;28;20175;-49
2022/04/03 08:39:31;;;;;;;11.93;2.80;;;6.40;99.90;;;;;;5032711;28;20250;-49
2022/04/03 08:41:57;;;;;;;6.07;2.80;;;6.50;99.90;;;;;;5032307;28;20270;-49
2022/04/03 08:44:23;;;;;;;3.92;2.47;;;6.70;99.90;;;;;;5032452;28;20181;-49
2022/04/03 08:46:49;;;;;;;10.63;2.75;;;6.50;99.90;;;;;;5031696;28;20249;-49
2022/04/03 08:49:19;;;;;;;5.05;2.83;;;6.80;99.90;;;;;;5032694;28;20250;-49
2022/04/03 08:51:46;;;;;;;7.63;3.20;;;6.80;99.90;;;;;;5032947;28;20194;-49
2022/04/03 08:54:14;;;;;;;3.55;2.92;;;6.80;99.90;;;;;;5032677;28;21104;-49
2022/04/03 08:56:40;;;;;;;5.28;3.17;;;6.90;99.90;;;;;;5032593;28;20193;-49
2022/04/03 08:59:05;;;;;;;8.73;2.50;;;7.00;99.90;;;;;;5032473;28;20235;-49
2022/04/03 09:01:31;;;;;;;8.85;3.83;;;6.70;99.90;;;;;;5031144;28;20207;-49
2022/04/03 09:03:56;;;;;;;9.35;3.22;;;6.90;99.90;;;;;;5032531;28;20269;-48
2022/04/03 09:06:22;;;;;;;3.75;2.95;;;7.10;99.90;;;;;;5031005;28;20703;-48
2022/04/03 09:08:49;;;;;;;8.18;2.85;;;7.10;99.90;;;;;;5032637;28;20707;-49
2022/04/03 09:11:16;;;;;;;8.00;2.88;;;7.30;99.90;;;;;;5032580;28;20175;-47
2022/04/03 09:13:43;;;;;;;4.47;2.53;;;7.30;99.90;;;;;;5032351;28;20166;-48
2022/04/03 09:16:09;;;;;;;4.82;2.55;;;7.40;99.90;;;;;;5032571;28;20221;-48
2022/04/03 09:18:52;;;;;;;4.25;2.38;;;7.50;99.90;;;;;;5031988;28;20182;-48
2022/04/03 09:21:23;;;;;;;3.22;2.38;;;7.20;99.90;;;;;;5032349;28;20221;-48
2022/04/03 09:24:06;;;;;;;4.43;2.40;;;7.50;99.90;;;;;;5032020;28;20159;-50
2022/04/03 09:26:33;;;;;;;3.05;2.40;;;7.50;99.90;;;;;;5032397;28;20190;-48
2022/04/03 09:29:10;;;;;;;2.85;2.35;;;7.40;99.90;;;;;;5032215;28;20175;-48
2022/04/03 09:31:37;;;;;;;3.90;2.28;;;7.70;99.90;;;;;;5032102;28;20561;-48
2022/04/03 09:34:05;;;;;;;3.95;2.28;;;7.90;99.90;;;;;;5030887;28;20171;-48
2022/04/03 09:36:32;;;;;;;1.90;1.80;;;7.70;99.90;;;;;;5032338;28;20324;-47
2022/04/03 09:39:24;;;;;;;2.53;2.05;;;8.00;98.20;;;;;;5032201;28;20267;-48
2022/04/03 09:41:56;;;;;;;2.72;2.13;;;7.80;96.20;;;;;;5031258;28;20294;-48
2022/04/03 09:44:51;;;;;;;2.58;1.90;;;8.20;97.70;;;;;;5032241;28;20187;-48
2022/04/03 09:47:20;;;;;;;2.10;1.90;;;8.50;96.50;;;;;;5030981;28;20219;-50
2022/04/03 09:50:00;;;;;;;2.30;1.75;;;8.60;94.10;;;;;;5030379;28;20676;-49
2022/04/03 09:52:45;;;;;;;2.63;2.17;;;8.30;91.20;;;;;;5031842;28;20174;-49
2022/04/03 09:55:18;;;;;;;2.58;1.67;;;8.50;93.40;;;;;;5031941;28;20167;-50
2022/04/03 09:57:45;;;;;;;2.30;1.67;;;8.90;95.90;;;;;;5031782;28;20171;-50
2022/04/03 10:00:13;;;;;;;5.13;2.05;;;8.70;91.00;;;;;;5031361;28;20585;-49
2022/04/03 10:02:45;;;;;;;3.78;1.92;;;8.90;89.30;;;;;;5031998;28;20186;-49
2022/04/03 10:05:11;;;;;;;2.15;1.77;;;9.10;87.30;;;;;;5030599;28;20573;-50
2022/04/03 10:07:39;;;;;;;3.95;1.88;;;9.10;91.40;;;;;;5031773;28;20539;-50
2022/04/03 10:10:06;;;;;;;2.35;1.83;;;9.40;91.00;;;;;;5031759;28;20164;-49
2022/04/03 10:12:33;;;;;;;6.30;2.08;;;9.40;90.00;;;;;;5031815;28;20198;-49
2022/04/03 10:14:59;;;;;;;2.58;2.00;;;9.30;88.60;;;;;;5031691;28;20178;-49
2022/04/03 10:17:24;;;;;;;3.30;1.90;;;9.60;92.70;;;;;;5031724;28;20716;-50
2022/04/03 10:19:51;;;;;;;3.42;1.90;;;9.70;90.80;;;;;;5032000;28;20171;-50
2022/04/03 10:22:27;;;;;;;4.57;1.92;;;9.70;89.30;;;;;;5032316;28;20258;-49
2022/04/03 10:24:56;;;;;;;2.83;1.98;;;9.50;87.60;;;;;;5031677;28;20242;-49
2022/04/03 10:27:27;;;;;;;3.35;2.47;;;9.50;89.00;;;;;;5031572;28;20182;-49
2022/04/03 10:29:56;;;;;;;5.85;2.08;;;9.40;87.40;;;;;;5031616;28;20218;-49
2022/04/03 10:32:27;;;;;;;2.40;1.88;;;9.50;88.80;;;;;;5031502;28;20218;-49
2022/04/03 10:34:56;;;;;;;4.28;1.83;;;9.50;90.30;;;;;;5033330;28;20171;-49
2022/04/03 10:37:36;;;;;;;4.03;1.83;;;9.70;88.70;;;;;;5035063;28;20680;-48
2022/04/03 10:40:18;;;;;;;2.85;1.92;;;9.60;88.90;;;;;;5035303;28;20199;-49
2022/04/03 10:43:05;;;;;;;4.30;1.90;;;9.50;87.20;;;;;;5035276;28;20188;-49
2022/04/03 10:45:35;;;;;;;4.22;2.20;;;9.40;85.60;;;;;;5034851;28;20230;-49
2022/04/03 10:48:19;;;;;;;2.65;1.80;;;9.30;89.60;;;;;;5034784;28;20309;-49
2022/04/03 10:51:08;;;;;;;1.92;1.58;;;9.30;90.00;;;;;;5034850;28;20190;-47
2022/04/03 10:53:47;;;;;;;3.33;1.67;;;9.00;89.10;;;;;;5034891;28;20199;-49
2022/04/03 10:56:28;;;;;;;4.22;1.80;;;8.90;90.90;;;;;;5034676;28;20171;-48
2022/04/03 10:58:56;;;;;;;3.35;2.00;;;8.70;91.60;;;;;;5034625;28;20254;-48
2022/04/03 11:01:31;;;;;;;3.55;1.80;;;8.70;90.50;;;;;;5034618;28;20221;-49
2022/04/03 11:04:01;;;;;;;3.40;1.67;;;8.80;89.70;;;;;;5034734;28;20163;-49
2022/04/03 11:06:29;;;;;;;2.88;2.00;;;9.00;90.60;;;;;;5034536;28;20167;-49
2022/04/03 11:08:55;;;;;;;2.30;2.00;;;9.10;93.00;;;;;;5034461;28;20175;-49
2022/04/03 11:11:35;;;;;;;3.20;2.20;;;9.20;92.10;;;;;;5034890;28;20165;-50
2022/04/03 11:14:00;;;;;;;2.40;1.83;;;9.20;93.20;;;;;;5034362;28;20584;-49
2022/04/03 11:16:26;;;;;;;2.65;1.98;;;9.10;92.00;;;;;;5034531;28;20217;-55
2022/04/03 11:18:51;;;;;;;5.15;1.80;;;8.90;93.40;;;;;;5034410;28;20175;-48
2022/04/03 11:21:33;;;;;;;4.25;2.00;;;8.90;93.80;;;;;;5034498;28;20753;-48
2022/04/03 11:24:13;;;;;;;1.60;1.30;;;8.70;93.10;;;;;;5034377;28;20170;-48
2022/04/03 11:26:40;;;;;;;2.53;2.10;;;8.50;92.10;;;;;;5034219;28;20194;-49
2022/04/03 11:29:07;;;;;;;4.10;1.92;;;8.60;93.30;;;;;;5034133;28;20170;-49
2022/04/03 11:31:34;;;;;;;2.83;1.73;;;8.70;92.80;;;;;;5034047;28;20225;-47
2022/04/03 11:34:00;;;;;;;3.38;1.73;;;8.60;92.10;;;;;;5034084;28;20163;-48
2022/04/03 11:36:31;;;;;;;6.25;2.17;;;9.00;93.20;;;;;;5034089;28;20501;-48
2022/04/03 11:38:58;;;;;;;3.70;2.30;;;9.50;93.50;;;;;;5032796;28;20530;-48
2022/04/03 11:41:34;;;;;;;2.65;1.85;;;9.70;92.30;;;;;;5034177;28;20276;-48
2022/04/03 11:44:15;;;;;;;3.97;2.00;;;9.90;91.90;;;;;;5034187;28;20175;-49
2022/04/03 11:46:45;;;;;;;3.88;1.90;;;10.00;87.40;;;;;;5032635;28;20218;-48
2022/04/03 11:49:16;;;;;;;2.35;1.80;;;10.10;91.00;;;;;;5033985;28;20613;-48
2022/04/03 11:51:43;;;;;;;2.20;1.60;;;10.20;91.10;;;;;;5032475;28;20213;-48
2022/04/03 11:54:09;;;;;;;3.05;1.95;;;9.70;91.50;;;;;;5033199;28;20703;-48
2022/04/03 11:56:37;;;;;;;3.78;2.10;;;9.90;91.80;;;;;;5033597;28;20666;-49
2022/04/03 11:59:04;;;;;;;3.35;2.20;;;9.40;90.80;;;;;;5032273;28;20178;-49
2022/04/03 12:01:49;;;;;;;3.10;2.00;;;9.10;92.90;;;;;;5033483;28;20203;-49
2022/04/03 12:04:14;;;;;;;3.15;2.30;;;9.60;92.10;;;;;;5033521;28;20684;-49
2022/04/03 12:06:42;;;;;;;4.20;2.00;;;9.30;92.30;;;;;;5033452;28;20172;-51
2022/04/03 12:09:11;;;;;;;3.35;2.10;;;9.40;91.30;;;;;;5033741;28;20167;-49
2022/04/03 12:11:38;;;;;;;4.30;2.85;;;9.70;94.00;;;;;;5033559;28;20314;-50
2022/04/03 12:14:05;;;;;;;3.45;2.33;;;10.20;93.10;;;;;;5033523;28;20537;-50
2022/04/03 12:16:37;;;;;;;4.40;2.38;;;10.30;91.20;;;;;;5033262;28;20245;-49
2022/04/03 12:19:08;;;;;;;2.00;1.80;;;10.30;91.10;;;;;;5033229;28;20196;-49
2022/04/03 12:21:36;;;;;;;3.70;2.38;;;10.50;90.50;;;;;;5033306;28;20211;-50
2022/04/03 12:24:16;;;;;;;2.13;1.75;;;10.60;92.00;;;;;;5033152;28;20266;-49
2022/04/03 12:26:54;;;;;;;4.13;2.50;;;10.70;91.10;;;;;;5032954;28;20177;-49
2022/04/03 12:29:21;;;;;;;3.63;2.00;;;10.90;92.50;;;;;;5033572;28;20254;-48
2022/04/03 12:32:05;;;;;;;4.05;3.22;;;11.00;88.70;;;;;;5033253;28;20168;-48
2022/04/03 12:34:36;;;;;;;3.60;2.80;;;11.10;91.50;;;;;;5032987;28;20654;-48
2022/04/03 12:37:04;;;;;;;2.65;2.08;;;11.30;91.10;;;;;;5033147;28;20175;-48
2022/04/03 12:39:48;;;;;;;2.72;2.25;;;11.00;90.20;;;;;;5032969;28;20874;-49
2022/04/03 12:42:20;;;;;;;2.83;1.70;;;11.10;89.70;;;;;;5033108;28;20210;-49
2022/04/03 12:44:56;;;;;;;3.72;2.53;;;10.80;86.40;;;;;;5033035;28;20167;-49
2022/04/03 12:47:24;;;;;;;2.58;1.75;;;10.40;90.00;;;;;;5032918;28;20257;-48
2022/04/03 12:50:24;;;;;;;2.90;1.77;;;10.40;89.80;;;;;;5033242;28;20163;-49
2022/04/03 12:52:55;;;;;;;3.05;1.77;;;10.90;86.20;;;;;;5033159;28;20164;-48
2022/04/03 12:55:21;;;;;;;2.10;1.90;;;11.00;83.90;;;;;;5032829;28;20171;-48
2022/04/03 13:00:53;;;;;;;2.53;1.60;;;10.90;89.00;;;;;;5032886;28;20693;-48